Time,TemperatureF,DewpointF,PressureIn,WindDirection,WindDirectionDegrees,WindSpeedMPH,WindSpeedGustMPH,Humidity,HourlyPrecipIn,Conditions,Clouds,dailyrainin,SoftwareType,DateUTC
2013-02-28 00:01:00,49.0,-99.9,30.41,NNE,32,3.0,3.0,-999,-99.99,,,-99.99,,2013-02-28 08:01:00,
2013-02-28 00:12:00,49.0,-99.9,30.41,NW,309,2.0,2.0,-999,-99.99,,,-99.99,,2013-02-28 08:12:00,
2013-02-28 00:22:00,49.0,-99.9,30.41,NW,311,2.0,3.0,-999,-99.99,,,-99.99,,2013-02-28 08:22:00,
2013-02-28 00:32:00,49.0,-99.9,30.41,ESE,111,1.0,3.0,-999,-99.99,,,-99.99,,2013-02-28 08:32:00,
2013-02-28 00:42:00,48.0,-99.9,30.41,ESE,115,1.0,2.0,-999,-99.99,,,-99.99,,2013-02-28 08:42:00,
2013-02-28 00:53:00,49.0,-99.9,30.42,ESE,120,1.0,2.0,-999,-99.99,,,-99.99,,2013-02-28 08:53:00,
2013-02-28 01:04:00,49.0,-99.9,30.42,ENE,61,-999.0,6.0,-999,-99.99,,,-99.99,,2013-02-28 09:04:00,
2013-02-28 01:12:00,49.0,-99.9,30.42,ENE,70,2.0,6.0,-999,-99.99,,,-99.99,,2013-02-28 09:12:00,
2013-02-28 01:22:00,49.0,-99.9,30.42,ENE,61,1.0,5.0,-999,-99.99,,,-99.99,,2013-02-28 09:22:00,
2013-02-28 01:32:00,48.0,-99.9,30.42,NE,54,3.0,5.0,-999,-99.99,,,-99.99,,2013-02-28 09:32:00,
2013-02-28 01:42:00,49.0,-99.9,30.42,NE,49,2.0,4.0,-999,-99.99,,,-99.99,,2013-02-28 09:42:00,
2013-02-28 01:53:00,49.0,-99.9,30.42,North,356,1.0,7.0,-999,-99.99,,,-99.99,,2013-02-28 09:53:00,
2013-02-28 02:02:00,49.0,-99.9,30.43,NNE,23,3.0,7.0,-999,-99.99,,,-99.99,,2013-02-28 10:02:00,
2013-02-28 02:12:00,49.0,-99.9,30.43,NE,35,2.0,5.0,-999,-99.99,,,-99.99,,2013-02-28 10:12:00,
2013-02-28 02:22:00,49.0,-99.9,30.43,NE,40,2.0,4.0,-999,-99.99,,,-99.99,,2013-02-28 10:22:00,
2013-02-28 02:32:00,-999.0,-99.9,-100.00,ENE,74,2.0,3.0,-999,-99.99,,,-99.99,,2013-02-28 10:32:00,
2013-02-28 02:42:00,49.0,-99.9,30.42,NE,46,3.0,5.0,-999,-99.99,,,-99.99,,2013-02-28 10:42:00,
2013-02-28 02:52:00,49.0,-99.9,30.42,NE,55,2.0,5.0,-999,-99.99,,,-99.99,,2013-02-28 10:52:00,
2013-02-28 03:02:00,49.0,-99.9,30.43,ENE,64,3.0,4.0,-999,-99.99,,,-99.99,,2013-02-28 11:02:00,
2013-02-28 03:11:00,49.0,-99.9,30.42,ENE,63,2.0,4.0,-999,-99.99,,,-99.99,,2013-02-28 11:11:00,
2013-02-28 03:22:00,49.0,-99.9,30.42,ENE,72,2.0,5.0,-999,-99.99,,,-99.99,,2013-02-28 11:22:00,
2013-02-28 03:32:00,49.0,-99.9,30.42,ENE,78,2.0,4.0,-999,-99.99,,,-99.99,,2013-02-28 11:32:00,
2013-02-28 03:42:00,-999.0,-99.9,-100.00,East,84,2.0,3.0,-999,-99.99,,,-99.99,,2013-02-28 11:42:00,
2013-02-28 03:53:00,49.0,-99.9,30.41,ENE,73,2.0,4.0,-999,-99.99,,,-99.99,,2013-02-28 11:53:00,
2013-02-28 04:02:00,49.0,-99.9,30.41,NE,45,2.0,5.0,-999,-99.99,,,-99.99,,2013-02-28 12:02:00,
2013-02-28 04:12:00,49.0,-99.9,30.42,NE,38,3.0,6.0,-999,-99.99,,,-99.99,,2013-02-28 12:12:00,
2013-02-28 04:22:00,49.0,-99.9,30.42,NE,56,2.0,4.0,-999,-99.99,,,-99.99,,2013-02-28 12:22:00,
2013-02-28 04:32:00,50.0,-99.9,30.42,ENE,66,2.0,5.0,-999,-99.99,,,-99.99,,2013-02-28 12:32:00,
2013-02-28 04:42:00,50.0,-99.9,30.42,ENE,61,2.0,5.0,-999,-99.99,,,-99.99,,2013-02-28 12:42:00,
2013-02-28 04:53:00,49.0,-99.9,30.42,NE,44,3.0,6.0,-999,-99.99,,,-99.99,,2013-02-28 12:53:00,
2013-02-28 05:02:00,49.0,-99.9,30.42,NE,54,3.0,5.0,-999,-99.99,,,-99.99,,2013-02-28 13:02:00,
2013-02-28 05:12:00,49.0,-99.9,30.42,ENE,71,2.0,4.0,-999,-99.99,,,-99.99,,2013-02-28 13:12:00,
2013-02-28 05:22:00,49.0,-99.9,30.42,ENE,62,2.0,5.0,-999,-99.99,,,-99.99,,2013-02-28 13:22:00,
2013-02-28 05:32:00,50.0,-99.9,30.43,NE,39,3.0,6.0,-999,-99.99,,,-99.99,,2013-02-28 13:32:00,
2013-02-28 05:42:00,50.0,-99.9,30.43,ENE,74,1.0,5.0,-999,-99.99,,,-99.99,,2013-02-28 13:42:00,
2013-02-28 05:52:00,50.0,-99.9,30.43,NE,44,3.0,4.0,-999,-99.99,,,-99.99,,2013-02-28 13:52:00,
2013-02-28 06:02:00,50.0,-99.9,30.43,ENE,74,3.0,6.0,-999,-99.99,,,-99.99,,2013-02-28 14:02:00,
2013-02-28 06:12:00,49.0,-99.9,30.43,ENE,67,3.0,6.0,-999,-99.99,,,-99.99,,2013-02-28 14:12:00,
2013-02-28 06:22:00,50.0,-99.9,30.44,NE,53,2.0,5.0,-999,-99.99,,,-99.99,,2013-02-28 14:22:00,
2013-02-28 06:32:00,50.0,-99.9,30.44,NE,50,2.0,4.0,-999,-99.99,,,-99.99,,2013-02-28 14:32:00,
2013-02-28 06:42:00,49.0,-99.9,30.44,ENE,69,3.0,6.0,-999,-99.99,,,-99.99,,2013-02-28 14:42:00,
2013-02-28 06:52:00,49.0,-99.9,30.44,ENE,64,4.0,5.0,-999,-99.99,,,-99.99,,2013-02-28 14:52:00,
2013-02-28 07:02:00,49.0,-99.9,30.44,ENE,69,4.0,6.0,-999,-99.99,,,-99.99,,2013-02-28 15:02:00,
2013-02-28 07:11:00,49.0,-99.9,30.44,ENE,71,3.0,6.0,-999,-99.99,,,-99.99,,2013-02-28 15:11:00,
2013-02-28 07:22:00,49.0,-99.9,30.45,ENE,57,3.0,4.0,-999,-99.99,,,-99.99,,2013-02-28 15:22:00,
2013-02-28 07:32:00,50.0,-99.9,30.45,NE,53,2.0,4.0,-999,-99.99,,,-99.99,,2013-02-28 15:32:00,
2013-02-28 07:42:00,50.0,-99.9,30.45,ENE,70,2.0,3.0,-999,-99.99,,,-99.99,,2013-02-28 15:42:00,
2013-02-28 07:52:00,49.0,-99.9,30.45,NNW,338,0.0,2.0,-999,-99.99,,,-99.99,,2013-02-28 15:52:00,
2013-02-28 08:02:00,50.0,-99.9,30.46,NNW,339,1.0,3.0,-999,-99.99,,,-99.99,,2013-02-28 16:02:00,
2013-02-28 08:12:00,50.0,-99.9,30.46,North,1,1.0,3.0,-999,-99.99,,,-99.99,,2013-02-28 16:12:00,
2013-02-28 08:22:00,50.0,-99.9,30.47,NW,309,1.0,3.0,-999,-99.99,,,-99.99,,2013-02-28 16:22:00,
2013-02-28 08:32:00,51.0,-99.9,30.46,North,10,2.0,4.0,-999,-99.99,,,-99.99,,2013-02-28 16:32:00,
2013-02-28 08:43:00,52.0,-99.9,30.47,East,82,3.0,5.0,-999,-99.99,,,-99.99,,2013-02-28 16:43:00,
2013-02-28 08:53:00,52.0,-99.9,30.46,NE,43,1.0,5.0,-999,-99.99,,,-99.99,,2013-02-28 16:53:00,
2013-02-28 09:02:00,52.0,-99.9,30.47,SSE,149,1.0,3.0,-999,-99.99,,,-99.99,,2013-02-28 17:02:00,
2013-02-28 09:12:00,53.0,-99.9,30.47,North,356,2.0,4.0,-999,-99.99,,,-99.99,,2013-02-28 17:12:00,
2013-02-28 09:22:00,53.0,-99.9,30.47,WNW,296,3.0,4.0,-999,-99.99,,,-99.99,,2013-02-28 17:22:00,
2013-02-28 09:33:00,53.0,-99.9,30.48,West,280,5.0,7.0,-999,-99.99,,,-99.99,,2013-02-28 17:33:00,
2013-02-28 09:42:00,53.0,-99.9,30.48,WNW,283,6.0,9.0,-999,-99.99,,,-99.99,,2013-02-28 17:42:00,
2013-02-28 09:53:00,53.0,-99.9,30.48,WNW,285,5.0,9.0,-999,-99.99,,,-99.99,,2013-02-28 17:53:00,
2013-02-28 10:02:00,53.0,-99.9,30.49,WNW,289,8.0,9.0,-999,-99.99,,,-99.99,,2013-02-28 18:02:00,
2013-02-28 10:12:00,52.0,-99.9,30.49,WNW,289,9.0,12.0,-999,-99.99,,,-99.99,,2013-02-28 18:12:00,
2013-02-28 10:22:00,52.0,-99.9,30.49,WNW,284,6.0,10.0,-999,-99.99,,,-99.99,,2013-02-28 18:22:00,
2013-02-28 10:32:00,53.0,-99.9,30.49,WNW,283,8.0,11.0,-999,-99.99,,,-99.99,,2013-02-28 18:32:00,
2013-02-28 10:43:00,52.0,-99.9,30.49,WNW,285,11.0,13.0,-999,-99.99,,,-99.99,,2013-02-28 18:43:00,
2013-02-28 10:53:00,52.0,-99.9,30.50,WNW,283,10.0,12.0,-999,-99.99,,,-99.99,,2013-02-28 18:53:00,
2013-02-28 11:02:00,52.0,-99.9,30.49,West,280,9.0,11.0,-999,-99.99,,,-99.99,,2013-02-28 19:02:00,
2013-02-28 11:12:00,52.0,-99.9,30.49,WNW,285,9.0,13.0,-999,-99.99,,,-99.99,,2013-02-28 19:12:00,
2013-02-28 11:22:00,52.0,-99.9,30.50,WNW,284,9.0,12.0,-999,-99.99,,,-99.99,,2013-02-28 19:22:00,
2013-02-28 11:32:00,52.0,-99.9,30.50,WNW,290,7.0,13.0,-999,-99.99,,,-99.99,,2013-02-28 19:32:00,
2013-02-28 11:42:00,52.0,-99.9,30.49,West,281,7.0,10.0,-999,-99.99,,,-99.99,,2013-02-28 19:42:00,
2013-02-28 11:52:00,53.0,-99.9,30.49,WNW,288,9.0,13.0,-999,-99.99,,,-99.99,,2013-02-28 19:52:00,
2013-02-28 12:01:00,51.0,-99.9,30.50,WNW,293,10.0,13.0,-999,-99.99,,,-99.99,,2013-02-28 20:01:00,
2013-02-28 12:12:00,51.0,-99.9,30.50,WNW,287,10.0,14.0,-999,-99.99,,,-99.99,,2013-02-28 20:12:00,
2013-02-28 12:22:00,51.0,-99.9,30.49,WNW,292,8.0,13.0,-999,-99.99,,,-99.99,,2013-02-28 20:22:00,
2013-02-28 12:32:00,51.0,-99.9,30.49,WNW,292,10.0,13.0,-999,-99.99,,,-99.99,,2013-02-28 20:32:00,
2013-02-28 12:42:00,51.0,-99.9,30.49,WNW,291,12.0,16.0,-999,-99.99,,,-99.99,,2013-02-28 20:42:00,
2013-02-28 12:52:00,51.0,-99.9,30.49,WNW,303,7.0,12.0,-999,-99.99,,,-99.99,,2013-02-28 20:52:00,
2013-02-28 13:02:00,52.0,-99.9,30.48,WNW,290,10.0,15.0,-999,-99.99,,,-99.99,,2013-02-28 21:02:00,
2013-02-28 13:11:00,51.0,-99.9,30.49,WNW,286,11.0,15.0,-999,-99.99,,,-99.99,,2013-02-28 21:11:00,
2013-02-28 13:22:00,51.0,-99.9,30.49,WNW,288,9.0,14.0,-999,-99.99,,,-99.99,,2013-02-28 21:22:00,
2013-02-28 13:32:00,51.0,-99.9,30.48,WNW,283,8.0,13.0,-999,-99.99,,,-99.99,,2013-02-28 21:32:00,
2013-02-28 13:42:00,51.0,-99.9,30.48,WNW,302,5.0,11.0,-999,-99.99,,,-99.99,,2013-02-28 21:42:00,
2013-02-28 13:52:00,51.0,-99.9,30.48,WNW,294,7.0,13.0,-999,-99.99,,,-99.99,,2013-02-28 21:52:00,
2013-02-28 14:02:00,51.0,-99.9,30.48,WNW,292,7.0,11.0,-999,-99.99,,,-99.99,,2013-02-28 22:02:00,
2013-02-28 14:11:00,51.0,-99.9,30.48,WNW,299,4.0,11.0,-999,-99.99,,,-99.99,,2013-02-28 22:11:00,
2013-02-28 14:22:00,51.0,-99.9,30.48,NW,307,4.0,9.0,-999,-99.99,,,-99.99,,2013-02-28 22:22:00,
2013-02-28 14:32:00,52.0,-99.9,30.48,NNW,348,3.0,10.0,-999,-99.99,,,-99.99,,2013-02-28 22:32:00,
2013-02-28 14:42:00,52.0,-99.9,30.47,NW,309,4.0,8.0,-999,-99.99,,,-99.99,,2013-02-28 22:42:00,
2013-02-28 14:52:00,52.0,-99.9,30.47,WNW,283,4.0,11.0,-999,-99.99,,,-99.99,,2013-02-28 22:52:00,
2013-02-28 15:02:00,51.0,-99.9,30.47,NW,313,8.0,13.0,-999,-99.99,,,-99.99,,2013-02-28 23:02:00,
2013-02-28 15:12:00,52.0,-99.9,30.46,WNW,298,5.0,12.0,-999,-99.99,,,-99.99,,2013-02-28 23:12:00,
2013-02-28 15:22:00,52.0,-99.9,30.46,WNW,291,6.0,10.0,-999,-99.99,,,-99.99,,2013-02-28 23:22:00,
2013-02-28 15:32:00,51.0,-99.9,30.46,WNW,292,6.0,13.0,-999,-99.99,,,-99.99,,2013-02-28 23:32:00,
2013-02-28 15:42:00,51.0,-99.9,30.47,NW,304,7.0,13.0,-999,-99.99,,,-99.99,,2013-02-28 23:42:00,
2013-02-28 15:53:00,51.0,-99.9,30.47,NW,313,6.0,11.0,-999,-99.99,,,-99.99,,2013-02-28 23:53:00,
2013-02-28 16:02:00,51.0,-99.9,30.46,WNW,297,4.0,11.0,-999,-99.99,,,-99.99,,2013-03-01 00:02:00,
2013-02-28 16:11:00,51.0,-99.9,30.46,NW,326,3.0,6.0,-999,-99.99,,,-99.99,,2013-03-01 00:11:00,
2013-02-28 16:23:00,51.0,-99.9,30.46,NW,304,4.0,7.0,-999,-99.99,,,-99.99,,2013-03-01 00:23:00,
2013-02-28 16:32:00,51.0,-99.9,30.46,WNW,303,5.0,9.0,-999,-99.99,,,-99.99,,2013-03-01 00:32:00,
2013-02-28 16:42:00,51.0,-99.9,30.45,West,278,2.0,8.0,-999,-99.99,,,-99.99,,2013-03-01 00:42:00,
2013-02-28 16:52:00,50.0,-99.9,30.46,West,275,4.0,7.0,-999,-99.99,,,-99.99,,2013-03-01 00:52:00,
2013-02-28 17:01:00,50.0,-99.9,30.46,NW,307,4.0,6.0,-999,-99.99,,,-99.99,,2013-03-01 01:01:00,
2013-02-28 17:11:00,50.0,-99.9,30.46,NW,310,6.0,10.0,-999,-99.99,,,-99.99,,2013-03-01 01:11:00,
2013-02-28 17:22:00,49.0,-99.9,30.46,WNW,298,4.0,8.0,-999,-99.99,,,-99.99,,2013-03-01 01:22:00,
2013-02-28 17:32:00,49.0,-99.9,30.46,West,280,3.0,7.0,-999,-99.99,,,-99.99,,2013-03-01 01:32:00,
2013-02-28 17:42:00,49.0,-99.9,30.46,West,270,4.0,7.0,-999,-99.99,,,-99.99,,2013-03-01 01:42:00,
2013-02-28 17:52:00,49.0,-99.9,30.46,NW,320,3.0,7.0,-999,-99.99,,,-99.99,,2013-03-01 01:52:00,
2013-02-28 18:01:00,48.0,-99.9,30.46,WNW,295,4.0,6.0,-999,-99.99,,,-99.99,,2013-03-01 02:01:00,
2013-02-28 18:11:00,48.0,-99.9,30.46,WNW,302,3.0,6.0,-999,-99.99,,,-99.99,,2013-03-01 02:11:00,
2013-02-28 18:22:00,48.0,-99.9,30.46,WNW,289,3.0,6.0,-999,-99.99,,,-99.99,,2013-03-01 02:22:00,
2013-02-28 18:32:00,48.0,-99.9,30.47,WNW,302,3.0,5.0,-999,-99.99,,,-99.99,,2013-03-01 02:32:00,
2013-02-28 18:42:00,48.0,-99.9,30.47,West,272,2.0,5.0,-999,-99.99,,,-99.99,,2013-03-01 02:42:00,
2013-02-28 18:52:00,48.0,-99.9,30.47,East,98,2.0,4.0,-999,-99.99,,,-99.99,,2013-03-01 02:52:00,
2013-02-28 19:02:00,48.0,-99.9,30.47,East,100,2.0,6.0,-999,-99.99,,,-99.99,,2013-03-01 03:02:00,
2013-02-28 19:12:00,48.0,-99.9,30.47,WSW,244,2.0,5.0,-999,-99.99,,,-99.99,,2013-03-01 03:12:00,
2013-02-28 19:22:00,48.0,-99.9,30.47,SW,233,2.0,4.0,-999,-99.99,,,-99.99,,2013-03-01 03:22:00,
2013-02-28 19:32:00,49.0,-99.9,30.48,SW,216,2.0,7.0,-999,-99.99,,,-99.99,,2013-03-01 03:32:00,
2013-02-28 19:42:00,-999.0,-99.9,-100.00,NNW,334,3.0,4.0,-999,-99.99,,,-99.99,,2013-03-01 03:42:00,
2013-02-28 19:52:00,49.0,-99.9,30.48,West,271,2.0,4.0,-999,-99.99,,,-99.99,,2013-03-01 03:52:00,
2013-02-28 20:02:00,49.0,-99.9,30.49,WNW,296,2.0,4.0,-999,-99.99,,,-99.99,,2013-03-01 04:02:00,
2013-02-28 20:12:00,48.0,-99.9,30.49,SW,216,2.0,4.0,-999,-99.99,,,-99.99,,2013-03-01 04:12:00,
2013-02-28 20:22:00,48.0,-99.9,30.49,WNW,294,3.0,4.0,-999,-99.99,,,-99.99,,2013-03-01 04:22:00,
2013-02-28 20:32:00,48.0,-99.9,30.49,WSW,240,1.0,4.0,-999,-99.99,,,-99.99,,2013-03-01 04:32:00,
2013-02-28 20:42:00,48.0,-99.9,30.49,East,82,2.0,6.0,-999,-99.99,,,-99.99,,2013-03-01 04:42:00,
2013-02-28 20:52:00,48.0,-99.9,30.49,ENE,66,4.0,9.0,-999,-99.99,,,-99.99,,2013-03-01 04:52:00,
2013-02-28 21:02:00,48.0,-99.9,30.49,West,270,2.0,5.0,-999,-99.99,,,-99.99,,2013-03-01 05:02:00,
2013-02-28 21:11:00,48.0,-99.9,30.49,North,356,2.0,4.0,-999,-99.99,,,-99.99,,2013-03-01 05:11:00,
2013-02-28 21:22:00,48.0,-99.9,30.49,ENE,57,1.0,5.0,-999,-99.99,,,-99.99,,2013-03-01 05:22:00,
2013-02-28 21:33:00,48.0,-99.9,30.49,WNW,283,2.0,5.0,-999,-99.99,,,-99.99,,2013-03-01 05:33:00,
2013-02-28 21:42:00,48.0,-99.9,30.49,West,272,2.0,6.0,-999,-99.99,,,-99.99,,2013-03-01 05:42:00,
2013-02-28 21:53:00,48.0,-99.9,30.49,West,281,3.0,6.0,-999,-99.99,,,-99.99,,2013-03-01 05:53:00,
2013-02-28 22:02:00,49.0,-99.9,30.49,WNW,295,4.0,8.0,-999,-99.99,,,-99.99,,2013-03-01 06:02:00,
2013-02-28 22:12:00,49.0,-99.9,30.49,NW,318,2.0,6.0,-999,-99.99,,,-99.99,,2013-03-01 06:12:00,
2013-02-28 22:22:00,50.0,-99.9,30.49,NW,310,2.0,4.0,-999,-99.99,,,-99.99,,2013-03-01 06:22:00,
2013-02-28 22:32:00,49.0,-99.9,30.49,WSW,248,2.0,4.0,-999,-99.99,,,-99.99,,2013-03-01 06:32:00,
2013-02-28 22:43:00,49.0,-99.9,30.49,NW,311,3.0,8.0,-999,-99.99,,,-99.99,,2013-03-01 06:43:00,
2013-02-28 22:53:00,49.0,-99.9,30.49,NW,315,4.0,8.0,-999,-99.99,,,-99.99,,2013-03-01 06:53:00,
2013-02-28 23:02:00,49.0,-99.9,30.50,NW,315,4.0,7.0,-999,-99.99,,,-99.99,,2013-03-01 07:02:00,
2013-02-28 23:12:00,49.0,-99.9,30.50,NW,310,4.0,7.0,-999,-99.99,,,-99.99,,2013-03-01 07:12:00,
2013-02-28 23:22:00,49.0,-99.9,30.50,WNW,302,4.0,6.0,-999,-99.99,,,-99.99,,2013-03-01 07:22:00,
2013-02-28 23:33:00,48.0,-99.9,30.50,West,277,4.0,5.0,-999,-99.99,,,-99.99,,2013-03-01 07:33:00,
2013-02-28 23:43:00,-999.0,-99.9,-100.00,NW,305,4.0,7.0,-999,-99.99,,,-99.99,,2013-03-01 07:43:00,
2013-02-28 23:52:00,48.0,-99.9,30.49,West,281,5.0,6.0,-999,-99.99,,,-99.99,,2013-03-01 07:52:00,